Dutse International Airport

DNDS · Jigawa, Nigeria

Storia di METAR DNDS · Dutse International Airport

Di seguito sono riportati i METAR degli ultimi giorni. Seleziona un anno per sfogliare i METAR più vecchi, dall'anno 2007 in poi.

26 novembre 2022

Tempo Codice Tempo metereologico Temp. Vista Base nuvolosa Vento METAR/SPECI
16:00
M
30 °C 7 km - 050° 050° 8 kt METAR DNKN 261500Z 05008KT 7000 NSC 30/02 Q1013 NOSIG
15:00
M
31 °C 7 km - 040° 040° 6 kt METAR DNKN 261400Z 04006KT 7000 NSC 31/03 Q1014 NOSIG
14:00
M
31 °C 7 km - 020° 020° 6 kt METAR DNKN 261300Z 02006KT 7000 NSC 31/03 Q1014 NOSIG
13:00
M
30 °C 6 km - 060° 060° 9 kt METAR DNKN 261200Z 06009KT 6000 NSC 30/02 Q1016 NOSIG
12:00
M
29 °C 6 km - 090° 090° 10 kt METAR DNKN 261100Z 09010KT 6000 NSC 29/02 Q1016 NOSIG
11:00
M
28 °C 6 km - 070° 070° 13 kt METAR DNKN 261000Z 07013KT 6000 NSC 28/01 Q1018 NOSIG
10:00
M
26 °C 5 km - 080° 080° 3 kt METAR DNKN 260900Z 08003KT 5000 NSC 26/03 Q1018 TEMPO 3000
08:00
M
18 °C 7 km - 060° 060° 4 kt METAR DNKN 260700Z 06004KT 7000 NSC 18/01 Q1018 NOSIG
07:00
V
12 °C 10 km+ - 040° 040° 3 kt METAR DNKN 260600Z 04003KT CAVOK 12/07 Q1016 NOSIG
06:00
V
14 °C 10 km+ - 020° 020° 3 kt METAR DNKN 260500Z 02003KT CAVOK 14/05 Q1016 N0SIG
05:00
V
13 °C 10 km+ - 330° 330° 3 kt METAR DNKN 260400Z 33003KT CAVOK 13/08 Q1016 NOSIG
04:00
V
11 °C 10 km+ - Var 000° 0 kt METAR DNKN 260300Z 00000KT CAVOK 11/06 Q1016 NOSIG
03:00
V
13 °C 10 km+ - Var 000° 0 kt METAR DNKN 260200Z 00000KT CAVOK 13/09 Q1016
02:00
V
14 °C 10 km+ - Var 000° 0 kt METAR DNKN 260100Z 00000KT CAVOK 14/09 Q1016 NOSIG
01:00
V
14 °C 10 km+ - 300° 300° 4 kt METAR DNKN 260000Z 30004KT CAVOK 14/09 Q1016 NOSIG
00:00
V
15 °C 10 km+ - 300° 300° 3 kt METAR DNKN 252300Z 30003KT CAVOK 15/10 Q1016 NOSIG

25 novembre 2022

Tempo Codice Tempo metereologico Temp. Vista Base nuvolosa Vento METAR/SPECI
23:00
V
15 °C 10 km+ - Var 000° 0 kt METAR DNKN 252200Z 00000KT CAVOK 15/09 Q1016 NOSIG
22:00
V
16 °C 10 km+ - Var 000° 0 kt METAR DNKN 252100Z 00000KT CAVOK 16/09 Q1016 NOSIG
21:00
V
17 °C 8 km - Var Var 2 kt METAR DNKN 252000Z VRB02KT 8000 NSC 17/10 Q1016 NOSIG
20:00
V
18 °C 8 km - Var 000° 0 kt METAR DNKN 251900Z 00000KT 8000 NSC 18/10 Q1016 NOSIG
19:00
V
22 °C 8 km - 050° 050° 3 kt METAR DNKN 251800Z 05003KT 8000 NSC 22/12 Q1015 NOSIG
18:00
M
28 °C 7 km - 040° 040° 5 kt METAR DNKN 251700Z 04005KT 7000 NSC 28/08 Q1014 NOSIG
17:00
M
29 °C 7 km - 050° 050° 8 kt METAR DNKN 251600Z 05008KT 7000 NSC 29/08 Q1014 NOSIG
16:00
M
31 °C 7 km - 040° 040° 12 kt METAR DNKN 251500Z 04012KT 7000 NSC 31/09 Q1014 NOSIG
15:00
M
31 °C 7 km - 060° 060° 11 kt METAR DNKN 251400Z 06011KT 7000 NSC 31/09 Q1015 NOSIG
14:00
M
31 °C 7 km - 050° 050° 9 kt METAR DNKN 251300Z 05009KT 7000 NSC 31/07 Q1015 NOSIG
12:00
M
29 °C 6 km - 040° 040° 14 kt METAR DNKN 251100Z 04014KT 6000 NSC 29/07 Q1018 NOSIG
11:00
M
27 °C 5 km - 050° 050° 13 kt METAR DNKN 251000Z 05013KT 5000 HZ NSC 27/05 Q1019 TEMPO 3000
10:00
V
26 °C 8 km - 050° 050° 10 kt METAR DNKN 250900Z 05010KT 8000 NSC 26/07 Q1019 NOSIG
09:00
V
22 °C 8 km - 060° 060° 7 kt METAR DNKN 250800Z 06007KT 8000 NSC 22/05 Q1019 NOSIG
08:00
V
18 °C 8 km - Var Var 2 kt METAR DNKN 250700Z VRB02KT 8000 NSC 18/06 Q1018 NOSIG
07:00
U
13 °C 0 m - Var 000° 0 kt METAR DNKN 250600Z CALM 8KM NSC 13/05 Q1017 NOSIG
06:00
V
11 °C 10 km+ - Var 000° 0 kt METAR DNKN 250500Z CALM CAVOK 11/06 Q1016 NOSIG
05:00
V
11 °C 10 km+ - Var 000° 0 kt METAR DNKN 250400Z CALM CAVOK 11/06 Q1016 NOSIG
04:00
V
13 °C 10 km+ - Var 000° 0 kt METAR DNKN 250300Z 00000KT CAVOK 13/06 Q1016 NOSIG
03:00
V
14 °C 10 km+ - Var 000° 0 kt METAR DNKN 250200Z CALM CAVOK 14/07 Q1015 NOSIG
01:00
V
15 °C 10 km+ - Var 000° 0 kt METAR DNKN 250000Z 00000KT CAVOK 15/07 Q1016 NOSIG
00:00
V
16 °C 10 km+ - 320° 320° 3 kt METAR DNKN 242300Z 32003KT CAVOK 16/09 Q1016 NOSIG

24 novembre 2022

Tempo Codice Tempo metereologico Temp. Vista Base nuvolosa Vento METAR/SPECI
23:00
V
16 °C 10 km+ - Var 000° 0 kt METAR DNKN 242200Z CALM CAVOK 16/07 Q1016 NOSIG
22:00
U
16 °C 0 m - Var 000° 0 kt METAR DNKN 242100Z CALM 8KM NSC 16/08 Q1016 NOSIG
21:00
V
18 °C 8 km - Var 000° 0 kt METAR DNKN 242000Z 00000KT 8000 NSC 18/08 Q1016 NOSIG
18:00
V
26 °C 10 km+ - 050° 050° 7 kt METAR DNKN 241700Z 05007KT CAVOK 26/08 Q1014 NOSIG
17:00
V
29 °C 10 km+ - 050° 050° 10 kt METAR DNKN 241600Z 05010KT CAVOK 29/10 Q1014 NOSIG
16:00
V
30 °C 10 km+ - 040° 040° 11 kt METAR DNKN 241500Z 04011KT CAVOK 30/11 Q1014 NOSIG
15:00
V
30 °C 10 km+ - 040° 040° 12 kt METAR DNKN 241400Z 04012KT CAVOK 30/09 Q1014 NOSIG
14:00
V
31 °C 10 km+ - 060° 060° 9 kt METAR DNKN 241300Z 06009KT CAVOK 31/07 Q1015 NOSIG
13:00
V
28 °C 10 km+ - 050° 050° 11 kt METAR DNKN 241200Z 05011KT CAVOK 28/05 Q1016 NOSIG
12:00
V
29 °C 10 km+ - 050° 050° 14 kt METAR DNKN 241100Z 05014KT CAVOK 29/06 Q1017 NOSIG
11:00
V
28 °C 10 km+ - 060° 060° 13 kt METAR DNKN 241000Z 06013KT CAVOK 28/05 Q1018 NOSIG

Noi e le terze parti seguiamo il tuo comportamento su internet con i cookie. Se continui, riteniamo che tu sia d'accordo con la nostra Politica sui cookie.